sensor_id;sensor_type;location;lat;lon;timestamp;pressure;altitude;pressure_sealevel;temperature;humidity
44148;BME280;29810;55.848;37.368;2023-05-08T00:00:31;100602.34;;;1.87;53.13
44148;BME280;29810;55.848;37.368;2023-05-08T00:03:32;100603.97;;;1.84;52.96
44148;BME280;29810;55.848;37.368;2023-05-08T00:06:33;100605.69;;;1.83;52.83
44148;BME280;29810;55.848;37.368;2023-05-08T00:09:35;100608.19;;;1.81;53.26
44148;BME280;29810;55.848;37.368;2023-05-08T00:12:37;100612.47;;;1.81;53.73
44148;BME280;29810;55.848;37.368;2023-05-08T00:15:38;100609.91;;;1.81;53.82
44148;BME280;29810;55.848;37.368;2023-05-08T00:18:39;100613.31;;;1.80;54.51
44148;BME280;29810;55.848;37.368;2023-05-08T00:21:41;100617.56;;;1.78;54.50
44148;BME280;29810;55.848;37.368;2023-05-08T00:24:42;100615.81;;;1.77;54.90
44148;BME280;29810;55.848;37.368;2023-05-08T00:27:43;100623.53;;;1.75;54.53
44148;BME280;29810;55.848;37.368;2023-05-08T00:30:45;100623.41;;;1.71;56.11
44148;BME280;29810;55.848;37.368;2023-05-08T00:33:46;100620.81;;;1.69;56.07
44148;BME280;29810;55.848;37.368;2023-05-08T00:36:47;100622.53;;;1.69;55.37
44148;BME280;29810;55.848;37.368;2023-05-08T00:39:48;100625.88;;;1.66;54.62
44148;BME280;29810;55.848;37.368;2023-05-08T00:42:50;100624.94;;;1.62;56.47
44148;BME280;29810;55.848;37.368;2023-05-08T00:45:51;100628.50;;;1.68;56.32
44148;BME280;29810;55.848;37.368;2023-05-08T00:48:54;100624.25;;;1.71;55.14
44148;BME280;29810;55.848;37.368;2023-05-08T00:51:55;100628.53;;;1.69;56.25
44148;BME280;29810;55.848;37.368;2023-05-08T00:54:57;100624.31;;;1.73;55.92
44148;BME280;29810;55.848;37.368;2023-05-08T00:57:59;100629.50;;;1.76;56.34
44148;BME280;29810;55.848;37.368;2023-05-08T01:01:00;100638.94;;;1.75;55.56
44148;BME280;29810;55.848;37.368;2023-05-08T01:04:02;100636.38;;;1.75;55.70
44148;BME280;29810;55.848;37.368;2023-05-08T01:07:03;100640.56;;;1.72;56.01
44148;BME280;29810;55.848;37.368;2023-05-08T01:10:05;100643.22;;;1.76;55.53
44148;BME280;29810;55.848;37.368;2023-05-08T01:13:08;100646.84;;;1.83;56.31
44148;BME280;29810;55.848;37.368;2023-05-08T01:16:23;100644.25;;;1.83;56.35
44148;BME280;29810;55.848;37.368;2023-05-08T01:19:51;100650.22;;;1.82;56.55
44148;BME280;29810;55.848;37.368;2023-05-08T01:26:39;100640.63;;;1.75;56.88
44148;BME280;29810;55.848;37.368;2023-05-08T01:32:55;100641.53;;;1.75;56.71
44148;BME280;29810;55.848;37.368;2023-05-08T01:35:58;100644.91;;;1.73;56.88
44148;BME280;29810;55.848;37.368;2023-05-08T01:42:07;100647.53;;;1.76;57.26
44148;BME280;29810;55.848;37.368;2023-05-08T01:45:12;100642.16;;;2.06;56.50
44148;BME280;29810;55.848;37.368;2023-05-08T01:48:21;100640.09;;;2.32;55.26
44148;BME280;29810;55.848;37.368;2023-05-08T01:51:22;100646.44;;;2.06;55.76
44148;BME280;29810;55.848;37.368;2023-05-08T01:54:26;100652.25;;;1.97;55.40
44148;BME280;29810;55.848;37.368;2023-05-08T01:57:28;100669.53;;;1.64;57.38
44148;BME280;29810;55.848;37.368;2023-05-08T02:00:31;100660.03;;;1.60;57.64
44148;BME280;29810;55.848;37.368;2023-05-08T02:03:33;100673.00;;;1.65;57.56
44148;BME280;29810;55.848;37.368;2023-05-08T02:06:34;100669.62;;;1.68;57.51
44148;BME280;29810;55.848;37.368;2023-05-08T02:09:37;100673.03;;;1.67;57.75
44148;BME280;29810;55.848;37.368;2023-05-08T02:12:39;100669.91;;;1.80;57.41
44148;BME280;29810;55.848;37.368;2023-05-08T02:15:41;100663.44;;;3.40;54.23
44148;BME280;29810;55.848;37.368;2023-05-08T02:18:43;100661.50;;;5.55;50.55
44148;BME280;29810;55.848;37.368;2023-05-08T02:21:47;100646.53;;;7.07;45.76
44148;BME280;29810;55.848;37.368;2023-05-08T02:24:48;100661.56;;;5.58;45.47
44148;BME280;29810;55.848;37.368;2023-05-08T02:27:53;100665.38;;;4.16;49.13
44148;BME280;29810;55.848;37.368;2023-05-08T02:30:55;100670.66;;;3.62;50.97
44148;BME280;29810;55.848;37.368;2023-05-08T02:33:58;100678.59;;;3.20;52.17
44148;BME280;29810;55.848;37.368;2023-05-08T02:37:00;100677.41;;;2.55;54.58
44148;BME280;29810;55.848;37.368;2023-05-08T02:40:03;100677.97;;;2.37;55.36
44148;BME280;29810;55.848;37.368;2023-05-08T02:43:06;100682.69;;;2.18;56.54
44148;BME280;29810;55.848;37.368;2023-05-08T02:46:13;100686.22;;;2.22;56.60
44148;BME280;29810;55.848;37.368;2023-05-08T02:49:32;100679.72;;;2.39;55.66
44148;BME280;29810;55.848;37.368;2023-05-08T02:52:49;100687.78;;;2.56;55.29
44148;BME280;29810;55.848;37.368;2023-05-08T02:55:53;100694.87;;;2.70;55.17
44148;BME280;29810;55.848;37.368;2023-05-08T02:59:00;100695.97;;;2.81;54.25
44148;BME280;29810;55.848;37.368;2023-05-08T03:02:16;100694.37;;;2.89;54.65
44148;BME280;29810;55.848;37.368;2023-05-08T03:05:19;100702.94;;;3.37;54.51
44148;BME280;29810;55.848;37.368;2023-05-08T03:08:28;100697.66;;;5.43;50.87
44148;BME280;29810;55.848;37.368;2023-05-08T03:11:33;100687.31;;;9.26;45.05
44148;BME280;29810;55.848;37.368;2023-05-08T03:14:38;100677.63;;;12.81;37.02
44148;BME280;29810;55.848;37.368;2023-05-08T03:17:42;100664.75;;;15.52;34.13
44148;BME280;29810;55.848;37.368;2023-05-08T03:20:45;100663.87;;;17.38;32.09
44148;BME280;29810;55.848;37.368;2023-05-08T03:23:48;100653.19;;;18.79;31.02
44148;BME280;29810;55.848;37.368;2023-05-08T03:26:49;100651.84;;;19.77;27.00
44148;BME280;29810;55.848;37.368;2023-05-08T03:29:51;100650.50;;;20.35;28.50
44148;BME280;29810;55.848;37.368;2023-05-08T03:32:55;100648.88;;;21.27;22.46
44148;BME280;29810;55.848;37.368;2023-05-08T03:35:58;100646.53;;;21.96;27.09
44148;BME280;29810;55.848;37.368;2023-05-08T03:39:00;100645.06;;;22.63;22.64
44148;BME280;29810;55.848;37.368;2023-05-08T03:42:02;100644.16;;;23.04;23.40
44148;BME280;29810;55.848;37.368;2023-05-08T03:45:03;100636.06;;;23.46;19.80
44148;BME280;29810;55.848;37.368;2023-05-08T03:48:07;100649.44;;;23.19;20.99
44148;BME280;29810;55.848;37.368;2023-05-08T03:51:09;100646.28;;;22.01;20.57
44148;BME280;29810;55.848;37.368;2023-05-08T03:54:11;100657.63;;;20.83;20.50
44148;BME280;29810;55.848;37.368;2023-05-08T03:57:13;100666.22;;;21.02;22.02
44148;BME280;29810;55.848;37.368;2023-05-08T04:00:19;100660.78;;;20.90;22.59
44148;BME280;29810;55.848;37.368;2023-05-08T04:06:43;100672.81;;;20.63;19.93
44148;BME280;29810;55.848;37.368;2023-05-08T04:10:06;100671.22;;;20.93;20.48
44148;BME280;29810;55.848;37.368;2023-05-08T04:13:13;100661.25;;;22.16;21.22
44148;BME280;29810;55.848;37.368;2023-05-08T04:16:20;100654.22;;;23.39;19.16
44148;BME280;29810;55.848;37.368;2023-05-08T04:19:23;100654.91;;;24.07;17.22
44148;BME280;29810;55.848;37.368;2023-05-08T04:22:28;100647.44;;;23.61;17.63
44148;BME280;29810;55.848;37.368;2023-05-08T04:25:29;100653.63;;;24.87;19.34
44148;BME280;29810;55.848;37.368;2023-05-08T04:28:33;100650.87;;;25.83;16.65
44148;BME280;29810;55.848;37.368;2023-05-08T04:31:35;100645.78;;;25.68;17.46
44148;BME280;29810;55.848;37.368;2023-05-08T04:34:37;100636.69;;;26.71;17.57
44148;BME280;29810;55.848;37.368;2023-05-08T04:37:39;100641.97;;;27.48;16.79
44148;BME280;29810;55.848;37.368;2023-05-08T04:40:42;100643.59;;;27.91;15.44
44148;BME280;29810;55.848;37.368;2023-05-08T04:43:44;100640.78;;;28.33;17.03
44148;BME280;29810;55.848;37.368;2023-05-08T04:46:46;100633.25;;;29.17;16.34
44148;BME280;29810;55.848;37.368;2023-05-08T04:49:47;100636.38;;;29.32;15.75
44148;BME280;29810;55.848;37.368;2023-05-08T04:52:48;100648.13;;;29.01;13.30
44148;BME280;29810;55.848;37.368;2023-05-08T04:55:50;100653.06;;;27.64;14.16
44148;BME280;29810;55.848;37.368;2023-05-08T04:58:51;100651.09;;;27.24;15.62
44148;BME280;29810;55.848;37.368;2023-05-08T05:01:53;100647.78;;;28.05;16.19
44148;BME280;29810;55.848;37.368;2023-05-08T05:04:55;100645.12;;;29.34;14.33
44148;BME280;29810;55.848;37.368;2023-05-08T05:07:59;100634.78;;;29.19;14.55
44148;BME280;29810;55.848;37.368;2023-05-08T05:11:00;100649.03;;;28.61;15.64
44148;BME280;29810;55.848;37.368;2023-05-08T05:14:01;100646.09;;;29.43;13.03
44148;BME280;29810;55.848;37.368;2023-05-08T05:17:03;100642.97;;;29.85;14.44
44148;BME280;29810;55.848;37.368;2023-05-08T05:20:05;100646.69;;;29.84;12.83
44148;BME280;29810;55.848;37.368;2023-05-08T05:23:09;100646.41;;;29.87;13.32
44148;BME280;29810;55.848;37.368;2023-05-08T05:26:11;100656.19;;;30.16;13.79
44148;BME280;29810;55.848;37.368;2023-05-08T05:29:12;100657.28;;;28.99;13.10
44148;BME280;29810;55.848;37.368;2023-05-08T05:32:13;100666.69;;;27.61;13.74
44148;BME280;29810;55.848;37.368;2023-05-08T05:35:15;100675.94;;;27.15;14.51
44148;BME280;29810;55.848;37.368;2023-05-08T05:38:16;100675.84;;;26.72;14.25
44148;BME280;29810;55.848;37.368;2023-05-08T05:41:18;100671.88;;;26.44;14.00
44148;BME280;29810;55.848;37.368;2023-05-08T05:44:20;100677.53;;;27.17;14.26
44148;BME280;29810;55.848;37.368;2023-05-08T05:47:22;100682.00;;;23.35;15.52
44148;BME280;29810;55.848;37.368;2023-05-08T05:50:23;100696.25;;;22.09;17.93
44148;BME280;29810;55.848;37.368;2023-05-08T05:53:25;100684.72;;;23.74;16.20
44148;BME280;29810;55.848;37.368;2023-05-08T05:56:26;100681.00;;;23.76;16.64
44148;BME280;29810;55.848;37.368;2023-05-08T05:59:28;100678.09;;;24.31;16.03
44148;BME280;29810;55.848;37.368;2023-05-08T06:02:30;100696.16;;;22.10;17.29
44148;BME280;29810;55.848;37.368;2023-05-08T06:05:32;100695.88;;;19.61;19.58
44148;BME280;29810;55.848;37.368;2023-05-08T06:08:34;100711.50;;;18.56;20.28
44148;BME280;29810;55.848;37.368;2023-05-08T06:11:36;100720.34;;;17.75;21.47
44148;BME280;29810;55.848;37.368;2023-05-08T06:14:37;100723.62;;;16.47;23.08
44148;BME280;29810;55.848;37.368;2023-05-08T06:17:39;100719.06;;;17.43;21.84
44148;BME280;29810;55.848;37.368;2023-05-08T06:20:40;100710.59;;;16.68;22.08
44148;BME280;29810;55.848;37.368;2023-05-08T06:23:42;100717.66;;;15.14;23.64
44148;BME280;29810;55.848;37.368;2023-05-08T06:26:43;100737.59;;;12.50;26.85
44148;BME280;29810;55.848;37.368;2023-05-08T06:29:48;100739.56;;;10.79;29.54
44148;BME280;29810;55.848;37.368;2023-05-08T06:32:52;100731.72;;;10.09;31.09
44148;BME280;29810;55.848;37.368;2023-05-08T06:35:54;100751.63;;;10.15;30.68
44148;BME280;29810;55.848;37.368;2023-05-08T06:38:55;100741.06;;;10.25;30.49
44148;BME280;29810;55.848;37.368;2023-05-08T06:41:56;100745.41;;;10.26;29.72
44148;BME280;29810;55.848;37.368;2023-05-08T06:44:58;100745.63;;;10.05;30.82
44148;BME280;29810;55.848;37.368;2023-05-08T06:48:00;100739.81;;;9.80;31.53
44148;BME280;29810;55.848;37.368;2023-05-08T06:51:01;100733.41;;;10.13;30.85
44148;BME280;29810;55.848;37.368;2023-05-08T06:54:03;100733.84;;;10.49;30.39
44148;BME280;29810;55.848;37.368;2023-05-08T06:57:08;100731.03;;;10.68;30.31
44148;BME280;29810;55.848;37.368;2023-05-08T07:00:09;100734.97;;;10.26;30.34
44148;BME280;29810;55.848;37.368;2023-05-08T07:03:11;100717.69;;;10.18;30.31
44148;BME280;29810;55.848;37.368;2023-05-08T07:06:12;100744.06;;;9.88;30.89
44148;BME280;29810;55.848;37.368;2023-05-08T07:09:13;100736.97;;;10.00;30.84
44148;BME280;29810;55.848;37.368;2023-05-08T07:12:16;100750.44;;;9.55;31.40
44148;BME280;29810;55.848;37.368;2023-05-08T07:15:18;100726.88;;;9.69;31.03
44148;BME280;29810;55.848;37.368;2023-05-08T07:18:19;100728.25;;;10.07;30.99
44148;BME280;29810;55.848;37.368;2023-05-08T07:21:20;100715.84;;;10.27;30.32
44148;BME280;29810;55.848;37.368;2023-05-08T07:24:22;100716.78;;;10.23;30.80
44148;BME280;29810;55.848;37.368;2023-05-08T07:27:24;100714.94;;;10.32;29.95
44148;BME280;29810;55.848;37.368;2023-05-08T07:30:25;100716.22;;;10.70;29.69
44148;BME280;29810;55.848;37.368;2023-05-08T07:33:27;100704.63;;;10.92;29.61
44148;BME280;29810;55.848;37.368;2023-05-08T07:36:28;100721.19;;;10.87;28.55
44148;BME280;29810;55.848;37.368;2023-05-08T07:39:29;100721.63;;;10.56;29.12
44148;BME280;29810;55.848;37.368;2023-05-08T07:42:36;100720.78;;;10.54;29.21
44148;BME280;29810;55.848;37.368;2023-05-08T07:45:38;100722.94;;;10.15;29.32
44148;BME280;29810;55.848;37.368;2023-05-08T07:48:39;100708.22;;;10.12;29.88
44148;BME280;29810;55.848;37.368;2023-05-08T07:51:41;100711.63;;;10.17;30.21
44148;BME280;29810;55.848;37.368;2023-05-08T07:54:42;100713.25;;;10.27;30.13
44148;BME280;29810;55.848;37.368;2023-05-08T07:57:43;100714.59;;;10.59;29.77
44148;BME280;29810;55.848;37.368;2023-05-08T08:00:45;100704.97;;;10.68;28.85
44148;BME280;29810;55.848;37.368;2023-05-08T08:03:47;100713.09;;;10.41;28.75
44148;BME280;29810;55.848;37.368;2023-05-08T08:06:48;100699.34;;;10.96;28.94
44148;BME280;29810;55.848;37.368;2023-05-08T08:09:49;100707.53;;;11.29;28.21
44148;BME280;29810;55.848;37.368;2023-05-08T08:12:50;100703.84;;;11.40;28.19
44148;BME280;29810;55.848;37.368;2023-05-08T08:15:52;100703.75;;;11.47;28.13
44148;BME280;29810;55.848;37.368;2023-05-08T08:18:53;100699.38;;;11.49;28.44
44148;BME280;29810;55.848;37.368;2023-05-08T08:21:54;100712.50;;;11.44;28.60
44148;BME280;29810;55.848;37.368;2023-05-08T08:24:56;100705.72;;;11.34;28.92
44148;BME280;29810;55.848;37.368;2023-05-08T08:27:57;100702.66;;;11.60;28.83
44148;BME280;29810;55.848;37.368;2023-05-08T08:30:58;100704.44;;;11.58;28.54
44148;BME280;29810;55.848;37.368;2023-05-08T08:34:01;100696.78;;;11.47;28.63
44148;BME280;29810;55.848;37.368;2023-05-08T08:37:04;100699.53;;;11.38;28.12
44148;BME280;29810;55.848;37.368;2023-05-08T08:40:05;100696.00;;;11.42;28.60
44148;BME280;29810;55.848;37.368;2023-05-08T08:43:08;100701.75;;;11.09;28.19
44148;BME280;29810;55.848;37.368;2023-05-08T08:46:10;100698.72;;;11.34;29.02
44148;BME280;29810;55.848;37.368;2023-05-08T08:49:12;100697.91;;;11.32;28.25
44148;BME280;29810;55.848;37.368;2023-05-08T08:55:35;100696.59;;;11.59;27.83
44148;BME280;29810;55.848;37.368;2023-05-08T08:58:41;100697.84;;;11.35;28.18
44148;BME280;29810;55.848;37.368;2023-05-08T09:01:47;100702.00;;;11.47;28.13
44148;BME280;29810;55.848;37.368;2023-05-08T09:04:50;100695.94;;;10.90;27.95
44148;BME280;29810;55.848;37.368;2023-05-08T09:07:55;100700.09;;;11.04;27.77
44148;BME280;29810;55.848;37.368;2023-05-08T09:10:56;100702.59;;;10.48;27.95
44148;BME280;29810;55.848;37.368;2023-05-08T09:13:58;100702.75;;;10.35;28.50
44148;BME280;29810;55.848;37.368;2023-05-08T09:16:59;100711.50;;;10.26;29.23
44148;BME280;29810;55.848;37.368;2023-05-08T09:20:01;100708.34;;;9.98;30.17
44148;BME280;29810;55.848;37.368;2023-05-08T09:23:03;100717.59;;;10.25;30.17
44148;BME280;29810;55.848;37.368;2023-05-08T09:26:04;100715.06;;;10.19;29.91
44148;BME280;29810;55.848;37.368;2023-05-08T09:32:16;100715.50;;;10.57;29.22
44148;BME280;29810;55.848;37.368;2023-05-08T09:35:18;100707.56;;;10.66;29.02
44148;BME280;29810;55.848;37.368;2023-05-08T09:41:30;100703.62;;;10.36;29.35
44148;BME280;29810;55.848;37.368;2023-05-08T09:44:47;100700.34;;;10.87;29.01
44148;BME280;29810;55.848;37.368;2023-05-08T09:47:49;100705.94;;;11.18;28.13
44148;BME280;29810;55.848;37.368;2023-05-08T09:50:55;100693.03;;;11.64;27.63
44148;BME280;29810;55.848;37.368;2023-05-08T09:54:05;100707.06;;;11.56;26.59
44148;BME280;29810;55.848;37.368;2023-05-08T09:57:16;100689.97;;;11.88;26.35
44148;BME280;29810;55.848;37.368;2023-05-08T10:00:18;100685.44;;;11.98;26.21
44148;BME280;29810;55.848;37.368;2023-05-08T10:03:19;100686.59;;;11.82;26.09
44148;BME280;29810;55.848;37.368;2023-05-08T10:06:20;100685.63;;;11.87;25.35
44148;BME280;29810;55.848;37.368;2023-05-08T10:09:22;100678.50;;;12.41;25.48
44148;BME280;29810;55.848;37.368;2023-05-08T10:12:23;100680.19;;;12.83;24.86
44148;BME280;29810;55.848;37.368;2023-05-08T10:15:27;100671.94;;;13.00;24.47
44148;BME280;29810;55.848;37.368;2023-05-08T10:18:28;100673.12;;;12.47;25.38
44148;BME280;29810;55.848;37.368;2023-05-08T10:21:34;100674.53;;;12.62;25.14
44148;BME280;29810;55.848;37.368;2023-05-08T10:24:36;100663.03;;;13.08;25.46
44148;BME280;29810;55.848;37.368;2023-05-08T10:27:42;100661.88;;;13.56;24.23
44148;BME280;29810;55.848;37.368;2023-05-08T10:30:48;100658.31;;;13.57;24.43
44148;BME280;29810;55.848;37.368;2023-05-08T10:33:51;100662.78;;;13.87;24.64
44148;BME280;29810;55.848;37.368;2023-05-08T10:36:54;100646.94;;;14.21;24.14
44148;BME280;29810;55.848;37.368;2023-05-08T10:39:56;100647.16;;;14.44;23.59
44148;BME280;29810;55.848;37.368;2023-05-08T10:42:59;100644.22;;;14.54;24.48
44148;BME280;29810;55.848;37.368;2023-05-08T10:46:01;100642.66;;;14.19;23.66
44148;BME280;29810;55.848;37.368;2023-05-08T10:52:49;100650.59;;;13.17;23.34
44148;BME280;29810;55.848;37.368;2023-05-08T10:55:46;100638.06;;;12.56;24.21
44148;BME280;29810;55.848;37.368;2023-05-08T10:58:54;100636.94;;;12.68;24.10
44148;BME280;29810;55.848;37.368;2023-05-08T11:02:03;100638.06;;;12.93;23.78
44148;BME280;29810;55.848;37.368;2023-05-08T11:05:18;100631.28;;;13.21;23.68
44148;BME280;29810;55.848;37.368;2023-05-08T11:08:20;100617.44;;;13.16;23.69
44148;BME280;29810;55.848;37.368;2023-05-08T11:11:28;100627.03;;;13.17;24.12
44148;BME280;29810;55.848;37.368;2023-05-08T11:14:32;100649.38;;;11.69;26.34
44148;BME280;29810;55.848;37.368;2023-05-08T11:17:34;100650.00;;;10.80;28.16
44148;BME280;29810;55.848;37.368;2023-05-08T11:20:42;100653.50;;;10.77;28.21
44148;BME280;29810;55.848;37.368;2023-05-08T11:23:57;100657.28;;;10.56;28.61
44148;BME280;29810;55.848;37.368;2023-05-08T11:26:58;100648.75;;;10.45;28.85
44148;BME280;29810;55.848;37.368;2023-05-08T11:33:21;100632.78;;;10.68;28.55
44148;BME280;29810;55.848;37.368;2023-05-08T11:36:23;100642.94;;;10.87;28.11
44148;BME280;29810;55.848;37.368;2023-05-08T11:39:25;100644.59;;;10.92;28.00
44148;BME280;29810;55.848;37.368;2023-05-08T11:45:28;100645.09;;;11.16;28.22
44148;BME280;29810;55.848;37.368;2023-05-08T11:48:30;100642.53;;;11.62;27.82
44148;BME280;29810;55.848;37.368;2023-05-08T11:51:31;100648.00;;;11.98;27.35
44148;BME280;29810;55.848;37.368;2023-05-08T11:54:33;100648.69;;;12.06;27.00
44148;BME280;29810;55.848;37.368;2023-05-08T11:57:34;100643.97;;;11.78;26.27
44148;BME280;29810;55.848;37.368;2023-05-08T12:00:39;100614.53;;;11.70;26.64
44148;BME280;29810;55.848;37.368;2023-05-08T12:03:40;100636.00;;;12.30;25.98
44148;BME280;29810;55.848;37.368;2023-05-08T12:06:41;100636.84;;;12.71;26.14
44148;BME280;29810;55.848;37.368;2023-05-08T12:09:44;100639.00;;;12.53;25.27
44148;BME280;29810;55.848;37.368;2023-05-08T12:12:46;100633.37;;;12.31;26.00
44148;BME280;29810;55.848;37.368;2023-05-08T12:15:50;100643.69;;;12.37;25.17
44148;BME280;29810;55.848;37.368;2023-05-08T12:18:54;100635.59;;;11.62;25.93
44148;BME280;29810;55.848;37.368;2023-05-08T12:21:56;100634.34;;;11.82;25.83
44148;BME280;29810;55.848;37.368;2023-05-08T12:24:58;100631.78;;;11.79;25.85
44148;BME280;29810;55.848;37.368;2023-05-08T12:27:59;100636.16;;;11.78;25.85
44148;BME280;29810;55.848;37.368;2023-05-08T12:31:00;100629.38;;;11.68;25.97
44148;BME280;29810;55.848;37.368;2023-05-08T12:34:02;100631.47;;;11.97;26.29
44148;BME280;29810;55.848;37.368;2023-05-08T12:37:04;100617.31;;;12.47;25.35
44148;BME280;29810;55.848;37.368;2023-05-08T12:40:06;100616.34;;;12.90;25.76
44148;BME280;29810;55.848;37.368;2023-05-08T12:43:08;100615.81;;;13.12;25.83
44148;BME280;29810;55.848;37.368;2023-05-08T12:46:09;100616.75;;;13.09;25.50
44148;BME280;29810;55.848;37.368;2023-05-08T12:49:11;100599.41;;;13.05;25.73
44148;BME280;29810;55.848;37.368;2023-05-08T12:52:12;100605.38;;;12.74;25.17
44148;BME280;29810;55.848;37.368;2023-05-08T12:55:20;100603.44;;;12.82;25.67
44148;BME280;29810;55.848;37.368;2023-05-08T12:58:26;100596.41;;;12.84;25.72
44148;BME280;29810;55.848;37.368;2023-05-08T13:01:27;100601.28;;;12.62;25.63
44148;BME280;29810;55.848;37.368;2023-05-08T13:04:29;100596.53;;;12.42;25.86
44148;BME280;29810;55.848;37.368;2023-05-08T13:07:30;100605.75;;;12.58;26.03
44148;BME280;29810;55.848;37.368;2023-05-08T13:10:55;100604.69;;;12.26;25.25
44148;BME280;29810;55.848;37.368;2023-05-08T13:13:54;100601.19;;;12.28;25.61
44148;BME280;29810;55.848;37.368;2023-05-08T13:16:55;100600.16;;;12.36;25.83
44148;BME280;29810;55.848;37.368;2023-05-08T13:19:56;100594.53;;;12.52;25.73
44148;BME280;29810;55.848;37.368;2023-05-08T13:22:58;100594.97;;;12.33;25.60
44148;BME280;29810;55.848;37.368;2023-05-08T13:25:59;100589.13;;;12.59;25.77
44148;BME280;29810;55.848;37.368;2023-05-08T13:29:00;100593.16;;;12.37;25.97
44148;BME280;29810;55.848;37.368;2023-05-08T13:32:02;100598.81;;;12.15;25.93
44148;BME280;29810;55.848;37.368;2023-05-08T13:35:03;100589.78;;;11.89;26.25
44148;BME280;29810;55.848;37.368;2023-05-08T13:38:04;100593.28;;;11.88;26.25
44148;BME280;29810;55.848;37.368;2023-05-08T13:41:07;100588.81;;;11.93;26.47
44148;BME280;29810;55.848;37.368;2023-05-08T13:44:08;100591.69;;;12.23;26.34
44148;BME280;29810;55.848;37.368;2023-05-08T13:47:09;100596.41;;;12.06;26.14
44148;BME280;29810;55.848;37.368;2023-05-08T13:50:11;100599.59;;;11.30;27.05
44148;BME280;29810;55.848;37.368;2023-05-08T13:53:13;100594.28;;;11.36;27.14
44148;BME280;29810;55.848;37.368;2023-05-08T13:56:14;100595.34;;;11.71;26.76
44148;BME280;29810;55.848;37.368;2023-05-08T13:59:15;100597.47;;;11.52;26.84
44148;BME280;29810;55.848;37.368;2023-05-08T14:02:17;100601.53;;;11.68;26.73
44148;BME280;29810;55.848;37.368;2023-05-08T14:05:18;100588.28;;;11.76;26.82
44148;BME280;29810;55.848;37.368;2023-05-08T14:08:19;100598.25;;;11.57;26.82
44148;BME280;29810;55.848;37.368;2023-05-08T14:11:21;100592.09;;;11.59;26.59
44148;BME280;29810;55.848;37.368;2023-05-08T14:14:22;100590.47;;;11.52;26.51
44148;BME280;29810;55.848;37.368;2023-05-08T14:17:23;100589.16;;;11.76;26.23
44148;BME280;29810;55.848;37.368;2023-05-08T14:20:25;100583.78;;;11.84;26.47
44148;BME280;29810;55.848;37.368;2023-05-08T14:23:26;100581.00;;;11.90;26.35
44148;BME280;29810;55.848;37.368;2023-05-08T14:26:27;100577.09;;;12.13;26.15
44148;BME280;29810;55.848;37.368;2023-05-08T14:29:29;100588.28;;;12.20;26.21
44148;BME280;29810;55.848;37.368;2023-05-08T14:32:30;100586.31;;;12.31;26.14
44148;BME280;29810;55.848;37.368;2023-05-08T14:35:31;100587.22;;;12.29;25.55
44148;BME280;29810;55.848;37.368;2023-05-08T14:38:32;100588.84;;;11.90;25.52
44148;BME280;29810;55.848;37.368;2023-05-08T14:41:34;100575.69;;;11.97;25.86
44148;BME280;29810;55.848;37.368;2023-05-08T14:44:36;100585.53;;;11.82;25.47
44148;BME280;29810;55.848;37.368;2023-05-08T14:47:38;100587.75;;;11.58;25.50
44148;BME280;29810;55.848;37.368;2023-05-08T14:50:39;100578.75;;;11.75;25.96
44148;BME280;29810;55.848;37.368;2023-05-08T14:53:40;100582.94;;;11.82;25.31
44148;BME280;29810;55.848;37.368;2023-05-08T14:56:42;100575.06;;;11.84;25.77
44148;BME280;29810;55.848;37.368;2023-05-08T14:59:43;100575.25;;;11.74;25.44
44148;BME280;29810;55.848;37.368;2023-05-08T15:02:44;100575.28;;;11.73;25.62
44148;BME280;29810;55.848;37.368;2023-05-08T15:05:46;100573.84;;;11.56;25.99
44148;BME280;29810;55.848;37.368;2023-05-08T15:08:47;100569.06;;;11.80;26.04
44148;BME280;29810;55.848;37.368;2023-05-08T15:11:50;100573.44;;;11.78;26.05
44148;BME280;29810;55.848;37.368;2023-05-08T15:14:51;100569.06;;;11.80;25.91
44148;BME280;29810;55.848;37.368;2023-05-08T15:17:52;100563.88;;;11.77;26.11
44148;BME280;29810;55.848;37.368;2023-05-08T15:20:53;100563.28;;;11.63;25.66
44148;BME280;29810;55.848;37.368;2023-05-08T15:23:55;100563.47;;;11.53;26.33
44148;BME280;29810;55.848;37.368;2023-05-08T15:26:56;100559.53;;;11.32;26.46
44148;BME280;29810;55.848;37.368;2023-05-08T15:29:58;100561.03;;;11.44;26.74
44148;BME280;29810;55.848;37.368;2023-05-08T15:32:59;100557.28;;;11.57;26.57
44148;BME280;29810;55.848;37.368;2023-05-08T15:36:00;100561.53;;;11.65;26.54
44148;BME280;29810;55.848;37.368;2023-05-08T15:39:02;100564.31;;;11.08;26.87
44148;BME280;29810;55.848;37.368;2023-05-08T15:42:04;100559.91;;;11.12;26.96
44148;BME280;29810;55.848;37.368;2023-05-08T15:45:05;100559.13;;;11.05;27.25
44148;BME280;29810;55.848;37.368;2023-05-08T15:48:07;100560.00;;;11.06;27.28
44148;BME280;29810;55.848;37.368;2023-05-08T15:51:08;100560.94;;;11.00;27.20
44148;BME280;29810;55.848;37.368;2023-05-08T15:54:09;100562.59;;;11.06;27.16
44148;BME280;29810;55.848;37.368;2023-05-08T15:57:10;100556.53;;;11.04;27.28
44148;BME280;29810;55.848;37.368;2023-05-08T16:00:12;100569.78;;;10.93;27.25
44148;BME280;29810;55.848;37.368;2023-05-08T16:03:14;100568.97;;;10.89;27.10
44148;BME280;29810;55.848;37.368;2023-05-08T16:06:15;100567.50;;;10.73;27.51
44148;BME280;29810;55.848;37.368;2023-05-08T16:09:17;100563.31;;;10.61;27.72
44148;BME280;29810;55.848;37.368;2023-05-08T16:12:18;100562.50;;;10.59;27.63
44148;BME280;29810;55.848;37.368;2023-05-08T16:15:19;100560.94;;;10.47;27.88
44148;BME280;29810;55.848;37.368;2023-05-08T16:18:21;100568.91;;;10.33;27.93